sensor_id;sensor_type;location;lat;lon;timestamp;P1;durP1;ratioP1;P2;durP2;ratioP2
77026;SDS011;65956;52.986;17.490;2024-02-15T00:00:15;46.30;;;24.30;;
77026;SDS011;65956;52.986;17.490;2024-02-15T00:03:03;59.60;;;31.10;;
77026;SDS011;65956;52.986;17.490;2024-02-15T00:05:32;41.70;;;21.40;;
77026;SDS011;65956;52.986;17.490;2024-02-15T00:08:02;46.20;;;22.70;;
77026;SDS011;65956;52.986;17.490;2024-02-15T00:10:30;42.20;;;20.30;;
77026;SDS011;65956;52.986;17.490;2024-02-15T00:12:56;40.30;;;20.00;;
77026;SDS011;65956;52.986;17.490;2024-02-15T00:15:22;41.60;;;19.00;;
77026;SDS011;65956;52.986;17.490;2024-02-15T00:17:48;39.90;;;19.40;;
77026;SDS011;65956;52.986;17.490;2024-02-15T00:20:14;45.40;;;20.90;;
77026;SDS011;65956;52.986;17.490;2024-02-15T00:22:40;42.00;;;20.00;;
77026;SDS011;65956;52.986;17.490;2024-02-15T00:25:07;43.90;;;21.40;;
77026;SDS011;65956;52.986;17.490;2024-02-15T00:27:35;44.90;;;21.60;;
77026;SDS011;65956;52.986;17.490;2024-02-15T00:30:01;47.60;;;24.00;;
77026;SDS011;65956;52.986;17.490;2024-02-15T00:32:28;49.00;;;24.40;;
77026;SDS011;65956;52.986;17.490;2024-02-15T00:34:55;47.60;;;23.00;;
77026;SDS011;65956;52.986;17.490;2024-02-15T00:37:22;44.40;;;22.50;;
77026;SDS011;65956;52.986;17.490;2024-02-15T00:39:48;43.00;;;21.20;;
77026;SDS011;65956;52.986;17.490;2024-02-15T00:42:14;41.40;;;20.40;;
77026;SDS011;65956;52.986;17.490;2024-02-15T00:44:41;42.40;;;19.60;;
77026;SDS011;65956;52.986;17.490;2024-02-15T00:47:09;40.00;;;21.10;;
77026;SDS011;65956;52.986;17.490;2024-02-15T00:49:36;45.40;;;21.60;;
77026;SDS011;65956;52.986;17.490;2024-02-15T00:52:02;44.20;;;21.00;;
77026;SDS011;65956;52.986;17.490;2024-02-15T00:54:28;42.10;;;21.00;;
77026;SDS011;65956;52.986;17.490;2024-02-15T00:56:55;42.30;;;19.90;;
77026;SDS011;65956;52.986;17.490;2024-02-15T00:59:21;37.70;;;19.20;;
77026;SDS011;65956;52.986;17.490;2024-02-15T01:01:47;43.90;;;20.70;;
77026;SDS011;65956;52.986;17.490;2024-02-15T01:04:13;37.10;;;19.30;;
77026;SDS011;65956;52.986;17.490;2024-02-15T01:06:41;42.40;;;20.30;;
77026;SDS011;65956;52.986;17.490;2024-02-15T01:09:09;45.40;;;24.20;;
77026;SDS011;65956;52.986;17.490;2024-02-15T01:11:35;41.60;;;23.30;;
77026;SDS011;65956;52.986;17.490;2024-02-15T01:14:02;38.00;;;19.80;;
77026;SDS011;65956;52.986;17.490;2024-02-15T01:16:29;37.90;;;20.50;;
77026;SDS011;65956;52.986;17.490;2024-02-15T01:18:55;37.90;;;19.60;;
77026;SDS011;65956;52.986;17.490;2024-02-15T01:21:21;43.00;;;21.50;;
77026;SDS011;65956;52.986;17.490;2024-02-15T01:23:48;41.40;;;20.80;;
77026;SDS011;65956;52.986;17.490;2024-02-15T01:26:14;34.10;;;17.10;;
77026;SDS011;65956;52.986;17.490;2024-02-15T01:28:40;38.80;;;20.00;;
77026;SDS011;65956;52.986;17.490;2024-02-15T01:31:10;36.00;;;19.60;;
77026;SDS011;65956;52.986;17.490;2024-02-15T01:33:37;41.90;;;20.20;;
77026;SDS011;65956;52.986;17.490;2024-02-15T01:36:03;41.00;;;20.80;;
77026;SDS011;65956;52.986;17.490;2024-02-15T01:38:30;38.70;;;21.40;;
77026;SDS011;65956;52.986;17.490;2024-02-15T01:40:57;40.80;;;19.60;;
77026;SDS011;65956;52.986;17.490;2024-02-15T01:43:23;39.90;;;20.30;;
77026;SDS011;65956;52.986;17.490;2024-02-15T01:45:49;39.00;;;21.00;;
77026;SDS011;65956;52.986;17.490;2024-02-15T01:48:15;39.80;;;21.60;;
77026;SDS011;65956;52.986;17.490;2024-02-15T01:50:41;36.90;;;21.20;;
77026;SDS011;65956;52.986;17.490;2024-02-15T01:53:09;39.00;;;20.80;;
77026;SDS011;65956;52.986;17.490;2024-02-15T01:55:37;40.60;;;21.40;;
77026;SDS011;65956;52.986;17.490;2024-02-15T01:58:04;37.30;;;20.90;;
77026;SDS011;65956;52.986;17.490;2024-02-15T02:00:30;40.00;;;20.80;;
77026;SDS011;65956;52.986;17.490;2024-02-15T02:02:56;40.80;;;20.40;;
77026;SDS011;65956;52.986;17.490;2024-02-15T02:05:27;37.60;;;20.10;;
77026;SDS011;65956;52.986;17.490;2024-02-15T02:07:54;37.80;;;20.20;;
77026;SDS011;65956;52.986;17.490;2024-02-15T02:14:28;41.00;;;21.80;;
77026;SDS011;65956;52.986;17.490;2024-02-15T02:16:54;36.30;;;19.40;;
77026;SDS011;65956;52.986;17.490;2024-02-15T02:19:20;39.20;;;20.80;;
77026;SDS011;65956;52.986;17.490;2024-02-15T02:21:47;36.20;;;19.50;;
77026;SDS011;65956;52.986;17.490;2024-02-15T02:24:21;35.30;;;20.20;;
77026;SDS011;65956;52.986;17.490;2024-02-15T02:26:49;37.20;;;19.80;;
77026;SDS011;65956;52.986;17.490;2024-02-15T02:29:15;37.00;;;20.30;;
77026;SDS011;65956;52.986;17.490;2024-02-15T02:31:42;34.80;;;19.70;;
77026;SDS011;65956;52.986;17.490;2024-02-15T02:34:08;36.50;;;19.50;;
77026;SDS011;65956;52.986;17.490;2024-02-15T02:36:36;36.50;;;20.80;;
77026;SDS011;65956;52.986;17.490;2024-02-15T02:39:02;38.90;;;22.00;;
77026;SDS011;65956;52.986;17.490;2024-02-15T02:41:28;39.90;;;20.70;;
77026;SDS011;65956;52.986;17.490;2024-02-15T02:43:55;36.50;;;21.40;;
77026;SDS011;65956;52.986;17.490;2024-02-15T02:46:23;41.70;;;21.10;;
77026;SDS011;65956;52.986;17.490;2024-02-15T02:48:49;37.00;;;20.30;;
77026;SDS011;65956;52.986;17.490;2024-02-15T02:51:15;41.70;;;22.40;;
77026;SDS011;65956;52.986;17.490;2024-02-15T02:53:41;37.60;;;20.80;;
77026;SDS011;65956;52.986;17.490;2024-02-15T02:56:07;37.00;;;20.70;;
77026;SDS011;65956;52.986;17.490;2024-02-15T02:58:35;39.10;;;21.30;;
77026;SDS011;65956;52.986;17.490;2024-02-15T03:01:01;44.90;;;23.20;;
77026;SDS011;65956;52.986;17.490;2024-02-15T03:03:27;43.00;;;23.20;;
77026;SDS011;65956;52.986;17.490;2024-02-15T03:05:53;39.10;;;22.40;;
77026;SDS011;65956;52.986;17.490;2024-02-15T03:08:22;41.70;;;22.80;;
77026;SDS011;65956;52.986;17.490;2024-02-15T03:10:49;41.90;;;22.10;;
77026;SDS011;65956;52.986;17.490;2024-02-15T03:13:17;41.60;;;22.70;;
77026;SDS011;65956;52.986;17.490;2024-02-15T03:15:45;39.30;;;22.80;;
77026;SDS011;65956;52.986;17.490;2024-02-15T03:18:14;41.50;;;22.80;;
77026;SDS011;65956;52.986;17.490;2024-02-15T03:20:41;40.30;;;23.60;;
77026;SDS011;65956;52.986;17.490;2024-02-15T03:23:08;38.90;;;22.70;;
77026;SDS011;65956;52.986;17.490;2024-02-15T03:25:34;40.70;;;24.00;;
77026;SDS011;65956;52.986;17.490;2024-02-15T03:28:01;42.10;;;22.90;;
77026;SDS011;65956;52.986;17.490;2024-02-15T03:30:30;40.20;;;23.60;;
77026;SDS011;65956;52.986;17.490;2024-02-15T03:32:58;38.90;;;23.50;;
77026;SDS011;65956;52.986;17.490;2024-02-15T03:35:24;37.30;;;22.60;;
77026;SDS011;65956;52.986;17.490;2024-02-15T03:37:52;40.30;;;23.20;;
77026;SDS011;65956;52.986;17.490;2024-02-15T03:40:19;38.90;;;22.80;;
77026;SDS011;65956;52.986;17.490;2024-02-15T03:42:46;37.50;;;23.40;;
77026;SDS011;65956;52.986;17.490;2024-02-15T03:45:12;36.80;;;22.70;;
77026;SDS011;65956;52.986;17.490;2024-02-15T03:47:39;37.80;;;21.30;;
77026;SDS011;65956;52.986;17.490;2024-02-15T03:50:05;38.00;;;22.20;;
77026;SDS011;65956;52.986;17.490;2024-02-15T03:52:37;34.20;;;22.40;;
77026;SDS011;65956;52.986;17.490;2024-02-15T03:55:04;40.00;;;23.10;;
77026;SDS011;65956;52.986;17.490;2024-02-15T03:57:33;40.90;;;23.20;;
77026;SDS011;65956;52.986;17.490;2024-02-15T03:59:59;36.30;;;22.70;;
77026;SDS011;65956;52.986;17.490;2024-02-15T04:02:26;36.80;;;22.60;;
77026;SDS011;65956;52.986;17.490;2024-02-15T04:04:54;37.90;;;22.80;;
77026;SDS011;65956;52.986;17.490;2024-02-15T04:07:21;39.20;;;22.20;;
77026;SDS011;65956;52.986;17.490;2024-02-15T04:09:48;33.30;;;21.00;;
77026;SDS011;65956;52.986;17.490;2024-02-15T04:12:14;32.40;;;20.80;;
77026;SDS011;65956;52.986;17.490;2024-02-15T04:14:40;32.70;;;20.30;;
77026;SDS011;65956;52.986;17.490;2024-02-15T04:17:07;33.90;;;21.00;;
77026;SDS011;65956;52.986;17.490;2024-02-15T04:19:33;39.60;;;21.10;;
77026;SDS011;65956;52.986;17.490;2024-02-15T04:22:00;32.60;;;20.50;;
77026;SDS011;65956;52.986;17.490;2024-02-15T04:24:26;32.30;;;21.00;;
77026;SDS011;65956;52.986;17.490;2024-02-15T04:26:52;32.00;;;19.70;;
77026;SDS011;65956;52.986;17.490;2024-02-15T04:29:19;32.80;;;20.20;;
77026;SDS011;65956;52.986;17.490;2024-02-15T04:31:46;31.60;;;20.20;;
77026;SDS011;65956;52.986;17.490;2024-02-15T04:34:15;33.60;;;19.90;;
77026;SDS011;65956;52.986;17.490;2024-02-15T04:36:46;33.20;;;20.70;;
77026;SDS011;65956;52.986;17.490;2024-02-15T04:39:17;34.20;;;21.00;;
77026;SDS011;65956;52.986;17.490;2024-02-15T04:41:55;33.40;;;20.30;;
77026;SDS011;65956;52.986;17.490;2024-02-15T04:44:22;34.20;;;20.90;;
77026;SDS011;65956;52.986;17.490;2024-02-15T04:46:53;33.60;;;22.90;;
77026;SDS011;65956;52.986;17.490;2024-02-15T04:49:20;34.50;;;21.70;;
77026;SDS011;65956;52.986;17.490;2024-02-15T04:51:46;34.60;;;21.90;;
77026;SDS011;65956;52.986;17.490;2024-02-15T04:54:15;33.30;;;19.30;;
77026;SDS011;65956;52.986;17.490;2024-02-15T04:56:44;33.60;;;21.40;;
77026;SDS011;65956;52.986;17.490;2024-02-15T04:59:11;32.80;;;20.70;;
77026;SDS011;65956;52.986;17.490;2024-02-15T05:01:41;32.30;;;20.80;;
77026;SDS011;65956;52.986;17.490;2024-02-15T05:04:11;32.80;;;19.90;;
77026;SDS011;65956;52.986;17.490;2024-02-15T05:06:38;31.20;;;20.10;;
77026;SDS011;65956;52.986;17.490;2024-02-15T05:09:04;33.20;;;20.20;;
77026;SDS011;65956;52.986;17.490;2024-02-15T05:11:36;33.60;;;20.10;;
77026;SDS011;65956;52.986;17.490;2024-02-15T05:14:03;28.70;;;19.80;;
77026;SDS011;65956;52.986;17.490;2024-02-15T05:16:33;32.20;;;19.80;;
77026;SDS011;65956;52.986;17.490;2024-02-15T05:18:59;29.00;;;19.50;;
77026;SDS011;65956;52.986;17.490;2024-02-15T05:21:26;29.50;;;19.00;;
77026;SDS011;65956;52.986;17.490;2024-02-15T05:23:52;30.50;;;19.30;;
77026;SDS011;65956;52.986;17.490;2024-02-15T05:26:18;31.00;;;18.50;;
77026;SDS011;65956;52.986;17.490;2024-02-15T05:28:49;28.60;;;19.90;;
77026;SDS011;65956;52.986;17.490;2024-02-15T05:31:19;28.10;;;18.40;;
77026;SDS011;65956;52.986;17.490;2024-02-15T05:33:46;31.20;;;18.10;;
77026;SDS011;65956;52.986;17.490;2024-02-15T05:36:13;29.70;;;18.30;;
77026;SDS011;65956;52.986;17.490;2024-02-15T05:38:40;34.10;;;21.30;;
77026;SDS011;65956;52.986;17.490;2024-02-15T05:41:07;35.70;;;20.80;;
77026;SDS011;65956;52.986;17.490;2024-02-15T05:43:33;35.20;;;23.10;;
77026;SDS011;65956;52.986;17.490;2024-02-15T05:46:02;34.60;;;21.20;;
77026;SDS011;65956;52.986;17.490;2024-02-15T05:48:29;38.70;;;22.70;;
77026;SDS011;65956;52.986;17.490;2024-02-15T05:50:56;39.60;;;23.20;;
77026;SDS011;65956;52.986;17.490;2024-02-15T05:53:23;49.70;;;25.90;;
77026;SDS011;65956;52.986;17.490;2024-02-15T05:55:50;40.70;;;22.30;;
77026;SDS011;65956;52.986;17.490;2024-02-15T05:58:16;40.00;;;22.20;;
77026;SDS011;65956;52.986;17.490;2024-02-15T06:00:42;35.50;;;21.10;;
77026;SDS011;65956;52.986;17.490;2024-02-15T06:03:10;35.00;;;21.10;;
77026;SDS011;65956;52.986;17.490;2024-02-15T06:05:44;34.00;;;19.80;;
77026;SDS011;65956;52.986;17.490;2024-02-15T06:08:15;33.40;;;20.40;;
77026;SDS011;65956;52.986;17.490;2024-02-15T06:10:41;32.50;;;19.80;;
77026;SDS011;65956;52.986;17.490;2024-02-15T06:13:26;31.60;;;20.00;;
77026;SDS011;65956;52.986;17.490;2024-02-15T06:15:53;36.70;;;21.70;;
77026;SDS011;65956;52.986;17.490;2024-02-15T06:18:20;32.40;;;19.70;;
77026;SDS011;65956;52.986;17.490;2024-02-15T06:20:47;33.90;;;21.20;;
77026;SDS011;65956;52.986;17.490;2024-02-15T06:26:01;33.70;;;20.30;;
77026;SDS011;65956;52.986;17.490;2024-02-15T06:28:28;30.30;;;19.60;;
77026;SDS011;65956;52.986;17.490;2024-02-15T06:31:14;33.50;;;19.40;;
77026;SDS011;65956;52.986;17.490;2024-02-15T06:33:59;33.10;;;20.20;;
77026;SDS011;65956;52.986;17.490;2024-02-15T06:36:47;31.80;;;19.60;;
77026;SDS011;65956;52.986;17.490;2024-02-15T06:39:32;31.40;;;20.40;;
77026;SDS011;65956;52.986;17.490;2024-02-15T06:42:08;32.30;;;19.40;;
77026;SDS011;65956;52.986;17.490;2024-02-15T06:44:37;36.30;;;19.40;;
77026;SDS011;65956;52.986;17.490;2024-02-15T06:47:06;31.90;;;19.70;;
77026;SDS011;65956;52.986;17.490;2024-02-15T06:49:32;33.60;;;19.50;;
77026;SDS011;65956;52.986;17.490;2024-02-15T06:51:59;30.60;;;19.20;;
77026;SDS011;65956;52.986;17.490;2024-02-15T06:54:28;30.30;;;19.70;;
77026;SDS011;65956;52.986;17.490;2024-02-15T06:56:54;34.50;;;21.20;;
77026;SDS011;65956;52.986;17.490;2024-02-15T06:59:20;37.00;;;21.70;;
77026;SDS011;65956;52.986;17.490;2024-02-15T07:01:49;33.40;;;20.80;;
77026;SDS011;65956;52.986;17.490;2024-02-15T07:04:20;34.10;;;21.00;;
77026;SDS011;65956;52.986;17.490;2024-02-15T07:06:47;32.30;;;19.50;;
77026;SDS011;65956;52.986;17.490;2024-02-15T07:09:14;31.80;;;19.80;;
77026;SDS011;65956;52.986;17.490;2024-02-15T07:11:45;33.40;;;21.40;;
77026;SDS011;65956;52.986;17.490;2024-02-15T07:14:15;31.90;;;19.20;;
77026;SDS011;65956;52.986;17.490;2024-02-15T07:16:48;32.40;;;19.40;;
77026;SDS011;65956;52.986;17.490;2024-02-15T07:19:15;31.90;;;20.50;;
77026;SDS011;65956;52.986;17.490;2024-02-15T07:21:41;33.50;;;19.40;;
77026;SDS011;65956;52.986;17.490;2024-02-15T07:24:08;36.80;;;22.00;;
77026;SDS011;65956;52.986;17.490;2024-02-15T07:26:35;34.40;;;20.90;;
77026;SDS011;65956;52.986;17.490;2024-02-15T07:29:02;34.40;;;20.90;;
77026;SDS011;65956;52.986;17.490;2024-02-15T07:31:32;35.70;;;21.40;;
77026;SDS011;65956;52.986;17.490;2024-02-15T07:34:01;32.20;;;19.10;;
77026;SDS011;65956;52.986;17.490;2024-02-15T07:36:29;35.00;;;21.40;;
77026;SDS011;65956;52.986;17.490;2024-02-15T07:38:56;34.30;;;20.50;;
77026;SDS011;65956;52.986;17.490;2024-02-15T07:41:26;37.70;;;23.40;;
77026;SDS011;65956;52.986;17.490;2024-02-15T07:43:53;42.60;;;24.90;;
77026;SDS011;65956;52.986;17.490;2024-02-15T07:46:21;42.40;;;25.40;;
77026;SDS011;65956;52.986;17.490;2024-02-15T07:48:48;44.60;;;27.10;;
77026;SDS011;65956;52.986;17.490;2024-02-15T07:51:15;38.80;;;24.30;;
77026;SDS011;65956;52.986;17.490;2024-02-15T07:53:44;45.10;;;27.20;;
77026;SDS011;65956;52.986;17.490;2024-02-15T07:56:10;45.70;;;27.80;;
77026;SDS011;65956;52.986;17.490;2024-02-15T07:58:38;45.70;;;30.20;;
77026;SDS011;65956;52.986;17.490;2024-02-15T08:01:08;52.40;;;28.70;;
77026;SDS011;65956;52.986;17.490;2024-02-15T08:03:37;52.00;;;29.60;;
77026;SDS011;65956;52.986;17.490;2024-02-15T08:06:03;38.00;;;23.70;;
77026;SDS011;65956;52.986;17.490;2024-02-15T08:08:33;32.90;;;20.40;;
77026;SDS011;65956;52.986;17.490;2024-02-15T08:11:02;37.70;;;22.50;;
77026;SDS011;65956;52.986;17.490;2024-02-15T08:13:29;44.60;;;25.50;;
77026;SDS011;65956;52.986;17.490;2024-02-15T08:15:55;47.70;;;25.50;;
77026;SDS011;65956;52.986;17.490;2024-02-15T08:18:22;36.40;;;24.40;;
77026;SDS011;65956;52.986;17.490;2024-02-15T08:20:48;32.30;;;20.10;;
77026;SDS011;65956;52.986;17.490;2024-02-15T08:23:14;35.00;;;21.40;;
77026;SDS011;65956;52.986;17.490;2024-02-15T08:25:40;33.70;;;19.80;;
77026;SDS011;65956;52.986;17.490;2024-02-15T08:28:07;29.80;;;18.90;;
77026;SDS011;65956;52.986;17.490;2024-02-15T08:30:33;34.80;;;20.20;;
77026;SDS011;65956;52.986;17.490;2024-02-15T08:32:59;26.50;;;16.20;;
77026;SDS011;65956;52.986;17.490;2024-02-15T08:35:26;28.00;;;19.10;;
77026;SDS011;65956;52.986;17.490;2024-02-15T08:37:52;35.20;;;19.90;;
77026;SDS011;65956;52.986;17.490;2024-02-15T08:40:18;27.30;;;17.40;;
77026;SDS011;65956;52.986;17.490;2024-02-15T08:42:50;24.90;;;16.80;;
77026;SDS011;65956;52.986;17.490;2024-02-15T08:45:16;26.40;;;17.00;;
77026;SDS011;65956;52.986;17.490;2024-02-15T08:47:42;24.30;;;15.90;;
77026;SDS011;65956;52.986;17.490;2024-02-15T08:50:09;25.10;;;15.30;;
77026;SDS011;65956;52.986;17.490;2024-02-15T08:52:37;22.40;;;14.60;;
77026;SDS011;65956;52.986;17.490;2024-02-15T08:55:07;20.70;;;14.70;;
77026;SDS011;65956;52.986;17.490;2024-02-15T08:57:36;22.50;;;15.20;;
77026;SDS011;65956;52.986;17.490;2024-02-15T09:00:06;22.20;;;14.30;;
77026;SDS011;65956;52.986;17.490;2024-02-15T09:02:42;22.90;;;14.80;;
77026;SDS011;65956;52.986;17.490;2024-02-15T09:05:10;24.10;;;15.50;;
77026;SDS011;65956;52.986;17.490;2024-02-15T09:07:40;21.00;;;14.40;;
77026;SDS011;65956;52.986;17.490;2024-02-15T09:10:11;19.90;;;13.60;;
77026;SDS011;65956;52.986;17.490;2024-02-15T09:12:38;20.00;;;13.80;;
77026;SDS011;65956;52.986;17.490;2024-02-15T09:15:06;18.80;;;12.80;;
77026;SDS011;65956;52.986;17.490;2024-02-15T09:17:34;20.70;;;13.50;;
77026;SDS011;65956;52.986;17.490;2024-02-15T09:20:12;21.60;;;14.30;;
77026;SDS011;65956;52.986;17.490;2024-02-15T09:22:46;21.60;;;13.70;;
77026;SDS011;65956;52.986;17.490;2024-02-15T09:25:14;22.50;;;13.50;;
77026;SDS011;65956;52.986;17.490;2024-02-15T09:27:40;21.50;;;13.80;;
77026;SDS011;65956;52.986;17.490;2024-02-15T09:30:07;22.00;;;13.20;;
77026;SDS011;65956;52.986;17.490;2024-02-15T09:32:35;23.50;;;14.50;;
77026;SDS011;65956;52.986;17.490;2024-02-15T09:35:02;20.30;;;13.20;;
77026;SDS011;65956;52.986;17.490;2024-02-15T09:37:28;19.00;;;11.60;;
77026;SDS011;65956;52.986;17.490;2024-02-15T09:39:55;21.20;;;14.40;;
77026;SDS011;65956;52.986;17.490;2024-02-15T09:42:21;17.70;;;13.30;;
77026;SDS011;65956;52.986;17.490;2024-02-15T09:44:49;18.60;;;12.30;;
77026;SDS011;65956;52.986;17.490;2024-02-15T09:47:17;16.50;;;11.40;;
77026;SDS011;65956;52.986;17.490;2024-02-15T09:49:44;16.70;;;11.30;;
77026;SDS011;65956;52.986;17.490;2024-02-15T09:52:10;17.40;;;11.80;;
77026;SDS011;65956;52.986;17.490;2024-02-15T09:54:42;18.30;;;12.50;;
77026;SDS011;65956;52.986;17.490;2024-02-15T09:57:09;17.70;;;11.00;;
77026;SDS011;65956;52.986;17.490;2024-02-15T09:59:37;18.80;;;11.00;;
77026;SDS011;65956;52.986;17.490;2024-02-15T10:02:05;16.20;;;10.40;;
77026;SDS011;65956;52.986;17.490;2024-02-15T10:04:39;16.90;;;11.40;;
77026;SDS011;65956;52.986;17.490;2024-02-15T10:07:06;18.20;;;12.20;;
77026;SDS011;65956;52.986;17.490;2024-02-15T10:09:34;15.80;;;11.20;;
77026;SDS011;65956;52.986;17.490;2024-02-15T10:12:03;18.20;;;11.80;;
77026;SDS011;65956;52.986;17.490;2024-02-15T10:14:32;15.70;;;11.10;;
77026;SDS011;65956;52.986;17.490;2024-02-15T10:17:06;18.30;;;12.80;;
77026;SDS011;65956;52.986;17.490;2024-02-15T10:19:40;18.00;;;12.80;;
77026;SDS011;65956;52.986;17.490;2024-02-15T11:59:24;29.10;;;18.80;;
77026;SDS011;65956;52.986;17.490;2024-02-15T12:01:58;30.70;;;19.20;;
77026;SDS011;65956;52.986;17.490;2024-02-15T12:04:44;32.10;;;18.80;;
77026;SDS011;65956;52.986;17.490;2024-02-15T12:07:28;34.20;;;19.90;;
77026;SDS011;65956;52.986;17.490;2024-02-15T12:10:20;25.60;;;16.00;;
77026;SDS011;65956;52.986;17.490;2024-02-15T12:13:04;34.50;;;23.00;;
77026;SDS011;65956;52.986;17.490;2024-02-15T12:15:56;25.20;;;16.60;;
77026;SDS011;65956;52.986;17.490;2024-02-15T12:18:42;28.90;;;18.50;;
77026;SDS011;65956;52.986;17.490;2024-02-15T12:21:11;25.30;;;16.50;;
77026;SDS011;65956;52.986;17.490;2024-02-15T12:26:07;21.30;;;14.30;;
77026;SDS011;65956;52.986;17.490;2024-02-15T12:28:33;22.30;;;14.40;;
77026;SDS011;65956;52.986;17.490;2024-02-15T12:31:01;21.20;;;14.30;;
77026;SDS011;65956;52.986;17.490;2024-02-15T12:33:28;21.50;;;14.50;;
77026;SDS011;65956;52.986;17.490;2024-02-15T12:36:04;39.00;;;24.60;;
77026;SDS011;65956;52.986;17.490;2024-02-15T12:38:31;25.30;;;17.30;;
77026;SDS011;65956;52.986;17.490;2024-02-15T12:41:00;21.40;;;17.10;;
77026;SDS011;65956;52.986;17.490;2024-02-15T12:43:29;20.90;;;14.60;;
77026;SDS011;65956;52.986;17.490;2024-02-15T12:45:55;21.60;;;13.90;;
77026;SDS011;65956;52.986;17.490;2024-02-15T12:48:25;20.70;;;14.00;;
77026;SDS011;65956;52.986;17.490;2024-02-15T12:50:52;24.90;;;15.90;;
77026;SDS011;65956;52.986;17.490;2024-02-15T12:53:21;18.40;;;14.20;;
77026;SDS011;65956;52.986;17.490;2024-02-15T12:55:55;21.10;;;14.60;;
77026;SDS011;65956;52.986;17.490;2024-02-15T12:58:25;25.20;;;17.00;;
77026;SDS011;65956;52.986;17.490;2024-02-15T13:00:54;27.20;;;17.00;;
77026;SDS011;65956;52.986;17.490;2024-02-15T13:03:24;27.00;;;16.90;;
77026;SDS011;65956;52.986;17.490;2024-02-15T13:05:50;29.50;;;19.80;;
77026;SDS011;65956;52.986;17.490;2024-02-15T13:08:17;27.10;;;18.20;;
77026;SDS011;65956;52.986;17.490;2024-02-15T13:10:44;28.00;;;18.70;;
77026;SDS011;65956;52.986;17.490;2024-02-15T13:13:10;29.20;;;18.80;;
77026;SDS011;65956;52.986;17.490;2024-02-15T13:15:37;24.40;;;17.00;;
77026;SDS011;65956;52.986;17.490;2024-02-15T13:18:03;24.00;;;16.40;;
77026;SDS011;65956;52.986;17.490;2024-02-15T13:20:35;26.00;;;17.10;;
77026;SDS011;65956;52.986;17.490;2024-02-15T13:23:03;23.20;;;15.60;;
77026;SDS011;65956;52.986;17.490;2024-02-15T13:25:38;23.50;;;15.10;;
77026;SDS011;65956;52.986;17.490;2024-02-15T13:28:05;36.30;;;19.80;;
77026;SDS011;65956;52.986;17.490;2024-02-15T13:30:32;29.30;;;17.90;;
77026;SDS011;65956;52.986;17.490;2024-02-15T13:32:58;25.40;;;16.00;;
77026;SDS011;65956;52.986;17.490;2024-02-15T13:35:24;25.30;;;16.30;;
77026;SDS011;65956;52.986;17.490;2024-02-15T13:37:51;20.30;;;14.50;;
77026;SDS011;65956;52.986;17.490;2024-02-15T13:40:20;24.20;;;15.60;;
77026;SDS011;65956;52.986;17.490;2024-02-15T13:42:51;23.50;;;16.60;;
77026;SDS011;65956;52.986;17.490;2024-02-15T13:45:40;22.40;;;15.60;;
77026;SDS011;65956;52.986;17.490;2024-02-15T13:48:07;25.40;;;16.70;;
77026;SDS011;65956;52.986;17.490;2024-02-15T13:50:34;24.10;;;16.50;;
77026;SDS011;65956;52.986;17.490;2024-02-15T13:53:01;21.70;;;15.10;;
77026;SDS011;65956;52.986;17.490;2024-02-15T13:55:29;30.00;;;20.80;;
77026;SDS011;65956;52.986;17.490;2024-02-15T13:57:56;21.90;;;16.40;;
77026;SDS011;65956;52.986;17.490;2024-02-15T14:00:23;25.40;;;18.30;;
77026;SDS011;65956;52.986;17.490;2024-02-15T14:02:56;25.90;;;19.30;;
77026;SDS011;65956;52.986;17.490;2024-02-15T14:05:24;31.20;;;22.60;;
77026;SDS011;65956;52.986;17.490;2024-02-15T14:08:03;32.80;;;22.60;;
77026;SDS011;65956;52.986;17.490;2024-02-15T14:10:34;32.80;;;23.00;;
77026;SDS011;65956;52.986;17.490;2024-02-15T14:13:02;25.60;;;17.50;;
77026;SDS011;65956;52.986;17.490;2024-02-15T14:15:33;37.60;;;22.10;;
77026;SDS011;65956;52.986;17.490;2024-02-15T14:18:04;54.40;;;30.20;;
77026;SDS011;65956;52.986;17.490;2024-02-15T14:20:31;42.80;;;26.20;;
77026;SDS011;65956;52.986;17.490;2024-02-15T14:22:57;67.40;;;38.50;;
77026;SDS011;65956;52.986;17.490;2024-02-15T14:25:24;63.40;;;46.90;;
77026;SDS011;65956;52.986;17.490;2024-02-15T14:27:53;45.30;;;33.80;;
77026;SDS011;65956;52.986;17.490;2024-02-15T14:30:20;36.70;;;24.90;;
77026;SDS011;65956;52.986;17.490;2024-02-15T14:33:07;31.70;;;22.00;;
77026;SDS011;65956;52.986;17.490;2024-02-15T14:35:45;39.40;;;29.80;;
77026;SDS011;65956;52.986;17.490;2024-02-15T14:38:14;28.50;;;19.20;;
77026;SDS011;65956;52.986;17.490;2024-02-15T14:40:43;33.80;;;22.50;;
77026;SDS011;65956;52.986;17.490;2024-02-15T14:43:24;47.80;;;33.40;;
77026;SDS011;65956;52.986;17.490;2024-02-15T14:45:54;63.50;;;40.00;;
77026;SDS011;65956;52.986;17.490;2024-02-15T14:48:21;208.30;;;130.20;;
77026;SDS011;65956;52.986;17.490;2024-02-15T14:50:49;143.30;;;91.10;;
77026;SDS011;65956;52.986;17.490;2024-02-15T14:53:16;150.00;;;102.00;;
77026;SDS011;65956;52.986;17.490;2024-02-15T14:56:01;77.70;;;53.70;;
77026;SDS011;65956;52.986;17.490;2024-02-15T14:58:39;93.40;;;68.20;;
77026;SDS011;65956;52.986;17.490;2024-02-15T15:01:06;135.10;;;87.30;;
77026;SDS011;65956;52.986;17.490;2024-02-15T15:03:53;178.20;;;116.40;;
77026;SDS011;65956;52.986;17.490;2024-02-15T15:06:20;74.50;;;50.60;;
77026;SDS011;65956;52.986;17.490;2024-02-15T15:09:05;58.30;;;35.80;;
77026;SDS011;65956;52.986;17.490;2024-02-15T15:12:00;57.60;;;33.10;;
77026;SDS011;65956;52.986;17.490;2024-02-15T15:14:45;42.70;;;29.30;;
77026;SDS011;65956;52.986;17.490;2024-02-15T15:17:12;35.50;;;24.20;;
77026;SDS011;65956;52.986;17.490;2024-02-15T15:19:38;39.40;;;25.60;;
77026;SDS011;65956;52.986;17.490;2024-02-15T15:22:04;37.60;;;25.00;;
77026;SDS011;65956;52.986;17.490;2024-02-15T15:24:36;35.00;;;22.60;;
77026;SDS011;65956;52.986;17.490;2024-02-15T15:27:02;33.30;;;21.50;;
77026;SDS011;65956;52.986;17.490;2024-02-15T15:29:30;40.40;;;25.30;;
77026;SDS011;65956;52.986;17.490;2024-02-15T15:31:59;40.20;;;26.40;;
77026;SDS011;65956;52.986;17.490;2024-02-15T15:34:26;49.90;;;30.80;;
77026;SDS011;65956;52.986;17.490;2024-02-15T15:36:58;42.80;;;26.70;;
77026;SDS011;65956;52.986;17.490;2024-02-15T15:39:28;47.30;;;28.70;;
77026;SDS011;65956;52.986;17.490;2024-02-15T15:41:58;41.20;;;26.30;;
77026;SDS011;65956;52.986;17.490;2024-02-15T15:44:30;62.50;;;40.00;;
77026;SDS011;65956;52.986;17.490;2024-02-15T15:46:56;166.90;;;78.50;;
77026;SDS011;65956;52.986;17.490;2024-02-15T15:49:24;115.20;;;69.60;;
77026;SDS011;65956;52.986;17.490;2024-02-15T15:51:52;124.90;;;89.30;;
77026;SDS011;65956;52.986;17.490;2024-02-15T15:54:30;86.50;;;50.90;;
77026;SDS011;65956;52.986;17.490;2024-02-15T15:57:00;271.80;;;130.70;;
77026;SDS011;65956;52.986;17.490;2024-02-15T15:59:33;200.20;;;96.30;;
77026;SDS011;65956;52.986;17.490;2024-02-15T16:02:01;184.70;;;98.10;;
77026;SDS011;65956;52.986;17.490;2024-02-15T16:04:30;139.70;;;77.50;;